Time;durP1;ratioP1;P1;durP2;ratioP2;P2;SDS_P1;SDS_P2;PMS_P1;PMS_P2;Temp;Humidity;BMP_temperature;BMP_pressure;BME280_temperature;BME280_humidity;BME280_pressure;Samples;Min_cycle;Max_cycle;Signal;HPM_P1;HPM_P2
2022/03/24 05:05:46;;;;;;;14.50;8.80;;;0.00;99.90;;;;;;5036108;23;20534;-77
2022/03/24 05:08:14;;;;;;;12.40;8.37;;;0.00;99.90;;;;;;5004357;28;20484;-75
2022/03/24 05:10:43;;;;;;;12.50;8.83;;;0.00;99.90;;;;;;5009601;28;20833;-77
2022/03/24 05:13:11;;;;;;;12.47;8.83;;;0.00;99.90;;;;;;5008796;28;20461;-78
2022/03/24 05:15:39;;;;;;;12.80;8.73;;;0.00;99.90;;;;;;4994724;28;20493;-78
2022/03/24 05:18:08;;;;;;;10.97;8.13;;;0.00;99.90;;;;;;4995488;28;20520;-76
2022/03/24 05:20:37;;;;;;;13.00;8.67;;;0.00;99.90;;;;;;4997293;28;20473;-78
2022/03/24 05:23:08;;;;;;;12.60;9.00;;;0.00;99.90;;;;;;4997136;28;21231;-76
2022/03/24 05:25:36;;;;;;;15.17;8.27;;;0.00;99.90;;;;;;4995893;28;20450;-74
2022/03/24 05:28:05;;;;;;;12.87;8.57;;;-0.10;99.90;;;;;;4993462;28;20450;-73
2022/03/24 05:30:33;;;;;;;12.60;8.03;;;-0.10;99.90;;;;;;4991599;28;20548;-76
2022/03/24 05:33:01;;;;;;;12.10;8.70;;;-0.10;99.90;;;;;;4990230;28;20517;-74
2022/03/24 05:35:32;;;;;;;11.03;8.50;;;0.00;99.90;;;;;;4992293;28;20534;-74
2022/03/24 05:38:00;;;;;;;11.33;8.23;;;0.00;99.90;;;;;;4985413;28;20446;-73
2022/03/24 05:40:30;;;;;;;16.17;8.70;;;0.00;99.90;;;;;;4992390;28;20969;-74
2022/03/24 05:42:58;;;;;;;14.30;8.80;;;0.10;99.90;;;;;;4993077;28;20927;-73
2022/03/24 05:45:27;;;;;;;12.97;8.93;;;0.10;99.90;;;;;;4993989;28;20473;-78
2022/03/24 05:47:55;;;;;;;13.60;8.40;;;0.20;99.90;;;;;;4995379;28;20479;-74
2022/03/24 05:50:24;;;;;;;11.87;8.73;;;0.20;99.90;;;;;;4994817;28;20531;-74
2022/03/24 05:52:58;;;;;;;12.90;8.60;;;0.40;99.90;;;;;;4997264;28;20484;-74
2022/03/24 05:55:26;;;;;;;15.00;9.07;;;0.40;99.90;;;;;;5001684;28;20458;-75
2022/03/24 05:57:56;;;;;;;14.27;9.17;;;0.50;99.90;;;;;;5006392;28;20483;-75
2022/03/24 06:00:24;;;;;;;13.13;8.03;;;0.60;99.90;;;;;;4997968;28;20446;-79
2022/03/24 06:02:53;;;;;;;10.10;8.17;;;0.70;99.90;;;;;;4992581;28;20547;-78
2022/03/24 06:05:22;;;;;;;12.17;8.40;;;0.90;99.90;;;;;;4992878;28;21017;-78
2022/03/24 06:07:50;;;;;;;12.33;8.00;;;0.90;99.90;;;;;;4992647;28;20497;-77
2022/03/24 06:10:19;;;;;;;9.93;7.57;;;1.00;99.90;;;;;;4992166;28;20466;-76
2022/03/24 06:12:47;;;;;;;11.80;7.73;;;1.10;99.90;;;;;;4992703;28;20485;-76
2022/03/24 06:15:17;;;;;;;10.03;7.93;;;1.20;99.90;;;;;;4992593;28;20989;-77
2022/03/24 06:17:45;;;;;;;11.70;8.20;;;1.30;99.90;;;;;;4991678;28;21025;-76
2022/03/24 06:20:13;;;;;;;11.80;8.10;;;1.40;99.90;;;;;;5006432;28;20502;-75
2022/03/24 06:22:49;;;;;;;13.20;8.13;;;1.60;99.90;;;;;;5010092;28;20519;-77
2022/03/24 06:25:17;;;;;;;9.80;7.77;;;1.70;99.90;;;;;;5001657;28;20437;-77
2022/03/24 06:27:46;;;;;;;10.63;7.33;;;1.90;99.90;;;;;;4996033;28;20529;-75
2022/03/24 06:30:16;;;;;;;11.93;7.60;;;2.00;99.90;;;;;;4989553;28;20452;-75
2022/03/24 06:32:46;;;;;;;11.37;7.63;;;2.20;99.90;;;;;;4999681;28;20866;-74
2022/03/24 06:35:14;;;;;;;12.57;7.60;;;2.40;99.90;;;;;;4999008;28;20502;-75
2022/03/24 06:37:42;;;;;;;11.60;7.53;;;2.60;99.90;;;;;;4997518;28;20534;-79
2022/03/24 06:40:13;;;;;;;11.63;7.33;;;2.80;99.90;;;;;;5000762;28;20475;-72
2022/03/24 06:42:42;;;;;;;12.60;7.83;;;3.10;99.90;;;;;;4997955;28;20590;-76
2022/03/24 06:45:12;;;;;;;9.93;7.60;;;3.20;99.90;;;;;;4998781;28;20473;-75
2022/03/24 06:47:42;;;;;;;10.67;7.10;;;3.50;99.90;;;;;;5006419;28;20456;-74
2022/03/24 06:50:12;;;;;;;11.10;7.63;;;3.90;99.90;;;;;;5011151;28;20201;-74
2022/03/24 06:52:40;;;;;;;10.67;6.80;;;4.20;99.90;;;;;;5013888;28;20270;-75
2022/03/24 06:55:12;;;;;;;9.73;6.90;;;4.80;99.90;;;;;;4998551;28;20254;-74
2022/03/24 06:57:41;;;;;;;15.77;7.20;;;5.60;99.90;;;;;;4997247;28;20211;-75
2022/03/24 07:00:14;;;;;;;9.30;6.70;;;6.40;99.90;;;;;;4996871;28;20230;-75
2022/03/24 07:02:45;;;;;;;8.90;6.03;;;7.60;99.90;;;;;;4997421;28;20218;-75
2022/03/24 07:05:13;;;;;;;8.97;6.73;;;8.80;99.90;;;;;;4995015;28;20329;-75
2022/03/24 07:07:43;;;;;;;10.90;6.90;;;10.20;95.20;;;;;;4994996;28;20229;-75
2022/03/24 07:10:11;;;;;;;13.83;6.73;;;11.00;93.00;;;;;;4994307;28;20210;-77
2022/03/24 07:12:39;;;;;;;10.20;6.30;;;12.00;91.10;;;;;;4994488;28;20245;-75
2022/03/24 07:15:10;;;;;;;12.87;6.60;;;13.00;87.80;;;;;;5003122;28;20237;-74
2022/03/24 07:17:38;;;;;;;8.60;5.87;;;13.90;82.20;;;;;;4995164;28;20369;-75
2022/03/24 07:20:09;;;;;;;10.13;6.47;;;15.20;78.40;;;;;;4994513;28;20211;-74
2022/03/24 07:22:38;;;;;;;10.70;6.17;;;16.70;74.00;;;;;;4994508;28;20285;-77
2022/03/24 07:25:08;;;;;;;9.07;6.20;;;18.30;65.70;;;;;;4989889;28;20317;-79
2022/03/24 07:27:37;;;;;;;11.03;6.63;;;18.90;62.00;;;;;;4993827;28;20248;-78
2022/03/24 07:30:06;;;;;;;8.30;6.43;;;20.10;58.80;;;;;;4993848;28;20217;-74
2022/03/24 07:32:38;;;;;;;9.47;7.23;;;20.30;55.10;;;;;;4994387;28;20210;-77
2022/03/24 07:35:14;;;;;;;13.93;8.07;;;20.50;53.60;;;;;;4998505;28;20396;-77
2022/03/24 07:37:43;;;;;;;10.00;7.63;;;20.30;52.50;;;;;;4997245;28;20207;-77
2022/03/24 07:40:11;;;;;;;9.53;7.87;;;20.30;52.20;;;;;;4994220;28;20286;-75
2022/03/24 07:42:42;;;;;;;13.95;8.07;;;20.80;51.10;;;;;;4994638;28;20234;-76
2022/03/24 07:45:11;;;;;;;10.90;7.78;;;21.00;50.40;;;;;;4993814;28;20234;-76
2022/03/24 07:48:07;;;;;;;9.95;8.02;;;20.80;50.80;;;;;;4994283;28;20237;-77
2022/03/24 07:50:38;;;;;;;15.25;9.07;;;20.80;50.60;;;;;;4985728;28;20205;-78
2022/03/24 07:53:19;;;;;;;12.77;8.35;;;21.10;49.90;;;;;;4994649;28;20285;-79
2022/03/24 07:55:47;;;;;;;10.27;8.80;;;22.10;48.80;;;;;;4994615;28;20209;-77
2022/03/24 07:58:18;;;;;;;11.27;9.30;;;22.90;46.90;;;;;;4993838;28;20234;-75
2022/03/24 08:00:47;;;;;;;12.40;9.23;;;22.20;47.70;;;;;;4999673;28;20213;-75
2022/03/24 08:03:17;;;;;;;13.15;8.60;;;22.70;47.20;;;;;;5002539;28;20230;-76
2022/03/24 08:05:48;;;;;;;13.50;9.05;;;23.40;46.20;;;;;;4993898;28;20214;-75
2022/03/24 08:08:16;;;;;;;13.15;9.00;;;23.90;44.80;;;;;;4994366;28;20245;-77
2022/03/24 08:10:46;;;;;;;14.45;8.93;;;23.20;45.40;;;;;;4994788;28;20550;-75
2022/03/24 08:13:16;;;;;;;13.15;8.38;;;23.00;46.60;;;;;;4994746;28;20230;-76
2022/03/24 08:15:45;;;;;;;11.63;9.48;;;23.30;45.70;;;;;;4994318;28;20218;-75
2022/03/24 08:18:15;;;;;;;12.43;9.38;;;23.80;45.30;;;;;;4993873;28;20218;-76
2022/03/24 08:20:46;;;;;;;10.38;9.32;;;23.70;45.10;;;;;;4993969;28;20245;-75
2022/03/24 08:23:16;;;;;;;12.82;9.50;;;23.20;45.00;;;;;;4993668;28;20302;-76
2022/03/24 08:25:45;;;;;;;11.63;9.45;;;23.70;45.40;;;;;;4993447;28;20238;-78
2022/03/24 08:28:14;;;;;;;16.40;10.00;;;24.60;43.50;;;;;;4982653;28;20249;-74
2022/03/24 08:30:44;;;;;;;14.50;9.73;;;23.70;45.10;;;;;;4993525;28;20205;-77
2022/03/24 08:33:12;;;;;;;12.43;9.80;;;23.50;45.50;;;;;;4993755;28;20230;-77
2022/03/24 08:35:41;;;;;;;12.30;10.18;;;23.40;45.10;;;;;;4993253;28;20732;-77
2022/03/24 08:38:11;;;;;;;18.17;10.38;;;24.20;43.60;;;;;;4993666;28;20206;-75
2022/03/24 08:40:41;;;;;;;13.98;10.27;;;24.60;44.50;;;;;;4993435;28;20298;-76
2022/03/24 08:43:09;;;;;;;14.82;10.38;;;25.10;44.10;;;;;;4993641;28;20209;-77
2022/03/24 08:45:38;;;;;;;13.23;10.68;;;24.80;44.20;;;;;;4993735;28;20256;-76
2022/03/24 08:48:08;;;;;;;12.95;11.57;;;25.60;42.30;;;;;;4992980;28;20212;-77
2022/03/24 08:50:37;;;;;;;13.00;11.70;;;25.20;41.80;;;;;;4993192;28;20606;-77
2022/03/24 08:53:08;;;;;;;18.33;11.98;;;25.10;41.70;;;;;;4992966;28;20264;-75
2022/03/24 08:55:36;;;;;;;15.50;11.32;;;24.30;43.30;;;;;;4994598;28;20250;-75
2022/03/24 08:58:05;;;;;;;15.57;11.95;;;24.90;42.70;;;;;;5002124;28;20753;-75
2022/03/24 09:00:34;;;;;;;14.38;12.82;;;24.40;43.80;;;;;;4992962;28;20245;-76
2022/03/24 09:03:03;;;;;;;17.58;12.55;;;25.00;42.50;;;;;;4993358;28;20217;-75
2022/03/24 09:05:33;;;;;;;14.43;12.93;;;25.10;41.20;;;;;;4992754;28;20225;-76
2022/03/24 09:08:04;;;;;;;14.52;13.02;;;25.60;41.00;;;;;;4990895;28;20253;-75
2022/03/24 09:10:33;;;;;;;14.85;12.55;;;25.20;40.80;;;;;;4993133;28;20245;-75
2022/03/24 09:13:11;;;;;;;21.35;12.52;;;25.60;41.90;;;;;;4993009;28;20205;-77
2022/03/24 09:15:39;;;;;;;20.75;13.38;;;25.90;39.60;;;;;;4992817;28;20578;-75
2022/03/24 09:18:09;;;;;;;19.20;12.40;;;25.50;39.70;;;;;;4993436;28;20206;-74
2022/03/24 09:20:39;;;;;;;14.82;12.52;;;24.80;41.50;;;;;;4993134;28;20237;-75
2022/03/24 09:23:08;;;;;;;15.02;13.10;;;25.30;40.70;;;;;;4993950;28;20551;-75
2022/03/24 09:25:38;;;;;;;17.35;12.52;;;26.40;40.10;;;;;;4993047;28;20659;-74
2022/03/24 09:28:08;;;;;;;17.08;13.02;;;26.80;40.90;;;;;;4978471;28;20218;-77
2022/03/24 09:30:37;;;;;;;15.50;12.05;;;27.40;39.00;;;;;;4984407;28;20611;-74
2022/03/24 09:33:06;;;;;;;17.02;15.10;;;27.00;40.50;;;;;;4994162;28;20252;-76
2022/03/24 09:35:34;;;;;;;15.13;12.75;;;26.90;39.90;;;;;;4991521;28;20261;-77
2022/03/24 09:38:02;;;;;;;14.80;12.85;;;26.60;38.30;;;;;;4992775;28;20271;-75
2022/03/24 09:40:31;;;;;;;15.13;12.80;;;26.10;39.10;;;;;;5000543;28;20217;-76
2022/03/24 09:43:00;;;;;;;14.07;12.55;;;26.00;41.80;;;;;;5004904;28;20226;-75
2022/03/24 09:45:28;;;;;;;17.15;12.80;;;27.40;39.50;;;;;;4992720;28;20703;-77
2022/03/24 09:47:58;;;;;;;18.75;13.27;;;27.20;39.20;;;;;;4992706;28;20771;-77
2022/03/24 09:50:26;;;;;;;15.82;12.57;;;27.50;37.70;;;;;;4992237;28;20221;-77
2022/03/24 09:52:59;;;;;;;13.95;12.48;;;27.40;37.50;;;;;;4992594;28;20214;-77
2022/03/24 09:55:30;;;;;;;14.85;12.07;;;26.90;38.10;;;;;;4992523;28;20793;-74
2022/03/24 09:57:59;;;;;;;13.95;11.82;;;26.80;38.10;;;;;;4993485;28;20199;-75
2022/03/24 10:00:40;;;;;;;14.18;12.27;;;26.90;37.20;;;;;;4995538;28;20309;-76
2022/03/24 10:03:15;;;;;;;13.70;12.30;;;26.00;36.30;;;;;;4996607;28;20221;-75
2022/03/24 10:05:58;;;;;;;15.73;12.90;;;26.60;36.40;;;;;;4996414;28;20210;-77
2022/03/24 10:08:28;;;;;;;16.42;12.05;;;27.20;36.30;;;;;;4996864;28;20943;-75
2022/03/24 10:11:00;;;;;;;14.13;12.63;;;26.90;36.70;;;;;;4996570;28;20210;-76
2022/03/24 10:13:46;;;;;;;15.20;12.20;;;28.00;33.50;;;;;;4996788;28;20214;-76
2022/03/24 10:16:40;;;;;;;13.88;11.93;;;28.40;34.00;;;;;;5000705;28;20194;-77
2022/03/24 10:19:15;;;;;;;14.13;12.60;;;28.10;35.40;;;;;;4997556;28;20190;-76
2022/03/24 10:21:45;;;;;;;14.05;11.52;;;28.60;34.80;;;;;;4997894;28;20284;-77
2022/03/24 10:24:16;;;;;;;14.75;12.40;;;28.90;33.70;;;;;;4997389;28;20213;-75
2022/03/24 10:26:47;;;;;;;16.33;13.23;;;28.10;33.80;;;;;;4997903;28;20206;-77
2022/03/24 10:29:18;;;;;;;13.80;12.40;;;27.70;33.20;;;;;;5008162;28;20189;-75
2022/03/24 10:31:52;;;;;;;18.00;13.57;;;28.40;33.80;;;;;;5018126;28;20322;-75
2022/03/24 10:34:31;;;;;;;14.32;12.80;;;26.90;34.90;;;;;;5018734;28;20233;-77
2022/03/24 10:37:03;;;;;;;15.38;13.57;;;27.10;37.00;;;;;;4999141;28;20202;-77
2022/03/24 10:39:31;;;;;;;15.43;13.60;;;27.00;35.20;;;;;;5002349;28;20199;-74
2022/03/24 10:42:15;;;;;;;15.57;13.02;;;26.30;35.00;;;;;;4997896;28;20284;-76
2022/03/24 10:45:17;;;;;;;19.92;14.07;;;26.90;35.10;;;;;;4994762;28;20241;-75
2022/03/24 10:47:49;;;;;;;16.33;13.32;;;26.70;35.40;;;;;;4998389;28;20195;-75
2022/03/24 10:50:34;;;;;;;15.48;13.80;;;27.50;37.00;;;;;;4995950;28;20222;-76
2022/03/24 10:53:05;;;;;;;17.17;13.35;;;27.20;35.60;;;;;;4995943;28;20190;-74
2022/03/24 10:55:56;;;;;;;14.20;12.90;;;26.30;34.00;;;;;;4996012;28;20230;-76
2022/03/24 10:58:31;;;;;;;14.20;12.68;;;26.60;33.90;;;;;;4992645;28;20214;-75
2022/03/24 11:01:02;;;;;;;16.17;12.50;;;26.10;35.00;;;;;;4995433;28;20600;-75
2022/03/24 11:03:31;;;;;;;15.23;12.93;;;26.80;34.80;;;;;;4995489;28;20195;-77
2022/03/24 11:06:17;;;;;;;15.13;13.63;;;27.00;34.20;;;;;;4995693;28;20207;-76
2022/03/24 11:08:51;;;;;;;15.95;12.82;;;26.60;34.50;;;;;;4995310;28;20664;-75
2022/03/24 11:11:20;;;;;;;15.20;13.60;;;26.70;35.30;;;;;;4993979;28;20235;-75
2022/03/24 11:13:51;;;;;;;25.65;14.07;;;26.60;34.40;;;;;;4995522;28;20214;-76
2022/03/24 11:16:23;;;;;;;17.80;13.02;;;25.80;34.60;;;;;;4995614;28;20222;-76
2022/03/24 11:18:53;;;;;;;14.48;12.73;;;25.90;36.40;;;;;;4995129;28;20206;-78
2022/03/24 11:21:32;;;;;;;13.75;12.40;;;26.00;36.30;;;;;;4996095;28;20324;-76
2022/03/24 11:24:01;;;;;;;16.02;11.85;;;26.70;35.10;;;;;;4996035;28;20222;-74
2022/03/24 11:26:30;;;;;;;18.55;13.05;;;27.10;34.40;;;;;;4995171;28;20297;-77
2022/03/24 11:28:59;;;;;;;18.63;12.50;;;26.40;34.40;;;;;;4991942;28;20210;-75
2022/03/24 11:31:31;;;;;;;16.65;11.65;;;26.50;36.80;;;;;;5006728;28;20237;-77
2022/03/24 11:34:04;;;;;;;13.95;12.43;;;26.50;35.60;;;;;;5014460;28;20209;-74
2022/03/24 11:36:34;;;;;;;16.08;11.35;;;26.60;35.40;;;;;;5014860;28;20236;-77
2022/03/24 11:39:04;;;;;;;12.32;9.93;;;26.40;34.10;;;;;;5015035;28;20256;-77
2022/03/24 11:41:39;;;;;;;12.52;9.20;;;25.70;34.00;;;;;;5010948;28;20276;-74
2022/03/24 11:44:11;;;;;;;12.90;8.98;;;25.80;32.50;;;;;;4996150;28;20221;-74
2022/03/24 11:46:46;;;;;;;11.38;9.25;;;26.30;33.10;;;;;;4994792;28;20234;-76
2022/03/24 11:49:18;;;;;;;11.20;9.32;;;26.20;32.70;;;;;;4994640;28;20202;-78
2022/03/24 11:51:50;;;;;;;10.50;9.45;;;25.20;34.50;;;;;;4994870;28;20286;-74
2022/03/24 11:54:27;;;;;;;10.50;9.15;;;25.90;33.00;;;;;;4995267;28;20216;-78
2022/03/24 11:57:31;;;;;;;10.82;8.48;;;24.80;34.70;;;;;;4994790;28;20834;-78
2022/03/24 12:00:33;;;;;;;12.80;8.73;;;24.20;36.70;;;;;;4994513;28;20214;-75
2022/03/24 12:03:02;;;;;;;14.87;8.90;;;23.90;36.10;;;;;;4972382;28;20668;-74
2022/03/24 12:05:51;;;;;;;10.60;8.90;;;24.00;35.50;;;;;;4975196;28;20214;-75
2022/03/24 12:08:28;;;;;;;9.57;8.40;;;23.60;33.90;;;;;;4979341;28;20207;-74
2022/03/24 12:10:57;;;;;;;9.57;8.20;;;23.30;37.10;;;;;;4976054;28;20202;-76
2022/03/24 12:13:25;;;;;;;12.60;7.57;;;22.80;35.30;;;;;;4976218;28;20245;-76
2022/03/24 12:16:12;;;;;;;10.33;7.10;;;22.80;34.30;;;;;;4982619;28;20222;-77
2022/03/24 12:18:41;;;;;;;11.07;7.87;;;22.90;36.40;;;;;;4998126;28;20301;-75
2022/03/24 12:21:19;;;;;;;13.23;7.70;;;22.90;35.90;;;;;;4997445;28;20214;-73
2022/03/24 12:24:09;;;;;;;13.03;9.87;;;22.90;36.20;;;;;;4996529;28;20278;-77
2022/03/24 12:26:48;;;;;;;10.10;9.00;;;22.60;37.70;;;;;;4998002;28;20588;-74
2022/03/24 12:29:20;;;;;;;10.50;8.47;;;22.40;35.80;;;;;;4998136;28;20214;-75
2022/03/24 12:32:02;;;;;;;10.33;7.00;;;21.90;35.70;;;;;;5006174;28;20253;-74
2022/03/24 12:34:43;;;;;;;8.53;7.20;;;22.00;35.60;;;;;;4996638;28;20202;-73
2022/03/24 12:37:38;;;;;;;10.33;7.03;;;21.80;35.30;;;;;;4997875;28;20218;-74
2022/03/24 12:40:13;;;;;;;8.63;7.23;;;22.20;35.50;;;;;;4995571;28;20268;-74
2022/03/24 12:42:43;;;;;;;11.57;7.27;;;22.20;33.60;;;;;;4997752;28;20236;-74
2022/03/24 12:45:17;;;;;;;8.40;7.50;;;21.80;34.00;;;;;;4990059;28;20210;-74
2022/03/24 12:47:48;;;;;;;10.60;7.97;;;21.60;32.30;;;;;;4992266;28;20667;-73
2022/03/24 12:50:48;;;;;;;10.70;7.47;;;21.40;35.20;;;;;;4997418;28;20214;-73
2022/03/24 12:53:16;;;;;;;11.07;7.57;;;21.80;35.60;;;;;;4994310;28;20253;-76
2022/03/24 12:55:46;;;;;;;10.53;6.93;;;21.60;34.50;;;;;;4995619;28;20250;-75
2022/03/24 12:58:15;;;;;;;8.60;7.20;;;21.70;35.20;;;;;;4994419;28;20202;-73
2022/03/24 13:00:47;;;;;;;7.90;6.40;;;21.80;35.80;;;;;;4995810;28;20293;-74
2022/03/24 13:03:16;;;;;;;9.37;6.83;;;21.90;36.40;;;;;;4988834;28;20423;-73
2022/03/24 13:05:50;;;;;;;7.97;5.53;;;21.70;33.30;;;;;;4974734;28;20222;-76
2022/03/24 13:08:24;;;;;;;7.87;5.90;;;21.70;32.30;;;;;;4989021;28;20204;-76
2022/03/24 13:11:01;;;;;;;7.27;5.53;;;21.40;32.20;;;;;;4993559;28;20205;-76
2022/03/24 13:13:29;;;;;;;8.50;5.50;;;21.30;33.00;;;;;;4993580;28;20886;-75
2022/03/24 13:15:57;;;;;;;9.13;5.13;;;21.10;31.90;;;;;;4993373;28;20299;-73
2022/03/24 13:18:26;;;;;;;6.63;4.90;;;21.00;31.10;;;;;;4992821;28;20252;-76
2022/03/24 13:20:57;;;;;;;5.87;4.97;;;21.20;33.70;;;;;;4992892;28;20260;-73
2022/03/24 13:23:28;;;;;;;6.67;5.10;;;20.90;31.70;;;;;;4993375;28;20214;-76
2022/03/24 13:26:04;;;;;;;5.73;4.90;;;21.20;31.90;;;;;;4992791;28;20245;-77
2022/03/24 13:28:34;;;;;;;8.53;5.80;;;21.20;32.60;;;;;;4993373;28;20207;-75
2022/03/24 13:31:02;;;;;;;5.37;4.40;;;21.30;30.80;;;;;;4993697;28;20202;-74
2022/03/24 13:33:31;;;;;;;6.67;4.50;;;21.50;30.70;;;;;;4993360;28;20214;-74
2022/03/24 13:36:03;;;;;;;5.70;4.20;;;21.60;31.20;;;;;;4992749;28;20236;-76
2022/03/24 13:38:31;;;;;;;8.20;6.27;;;21.80;29.80;;;;;;4993072;28;20256;-76
2022/03/24 13:41:01;;;;;;;8.27;5.73;;;21.70;32.20;;;;;;4989885;28;20246;-75
2022/03/24 13:43:29;;;;;;;10.93;6.47;;;21.60;32.20;;;;;;4992185;28;20269;-75
2022/03/24 13:45:58;;;;;;;7.30;5.90;;;21.50;33.60;;;;;;4998281;28;20632;-77
2022/03/24 13:48:27;;;;;;;8.60;6.17;;;21.40;33.10;;;;;;4994436;28;20206;-76
2022/03/24 13:51:02;;;;;;;8.30;6.23;;;21.50;33.70;;;;;;4993191;28;20207;-76
2022/03/24 13:53:32;;;;;;;9.97;6.53;;;21.40;31.90;;;;;;4992167;28;20276;-77
2022/03/24 13:56:10;;;;;;;8.47;7.50;;;21.60;33.30;;;;;;4992525;28;20234;-75
2022/03/24 13:58:39;;;;;;;10.00;6.70;;;21.60;32.70;;;;;;4992311;28;20214;-76
2022/03/24 14:01:11;;;;;;;7.80;6.80;;;21.50;32.10;;;;;;4989010;28;20210;-75
2022/03/24 14:03:41;;;;;;;10.60;6.90;;;21.20;31.70;;;;;;4991364;28;20214;-77
2022/03/24 14:06:13;;;;;;;9.70;6.80;;;21.10;32.80;;;;;;4991654;28;20265;-74
2022/03/24 14:08:45;;;;;;;12.27;8.57;;;20.90;32.70;;;;;;4990826;28;20194;-73
2022/03/24 14:11:18;;;;;;;13.10;8.97;;;20.90;35.40;;;;;;4992263;28;20611;-76
2022/03/24 14:13:50;;;;;;;10.17;8.43;;;21.00;36.90;;;;;;4991582;28;20572;-75
2022/03/24 14:16:22;;;;;;;10.43;8.17;;;20.90;34.80;;;;;;5004958;28;20225;-73
2022/03/24 14:19:12;;;;;;;15.50;8.63;;;20.90;35.30;;;;;;4993882;28;20218;-76
2022/03/24 14:21:44;;;;;;;8.53;7.57;;;21.00;36.30;;;;;;4992564;28;20202;-76
2022/03/24 14:24:28;;;;;;;10.50;7.33;;;21.00;35.60;;;;;;4993547;28;20682;-76
2022/03/24 14:27:00;;;;;;;10.20;7.57;;;20.90;33.60;;;;;;4987877;28;20206;-76
2022/03/24 14:29:29;;;;;;;8.97;7.13;;;21.10;34.80;;;;;;4992573;28;20210;-75
2022/03/24 14:32:15;;;;;;;10.10;7.13;;;21.10;34.00;;;;;;4990877;28;20456;-76
2022/03/24 14:34:44;;;;;;;10.43;7.50;;;20.90;34.80;;;;;;4987692;28;20207;-76
2022/03/24 14:37:15;;;;;;;8.30;6.80;;;20.80;35.60;;;;;;4990581;28;20788;-73
2022/03/24 14:39:48;;;;;;;7.87;6.93;;;20.80;34.70;;;;;;4991961;28;20191;-76
2022/03/24 14:42:19;;;;;;;10.37;7.30;;;21.00;35.50;;;;;;4991929;28;20230;-76
2022/03/24 14:44:48;;;;;;;9.40;7.57;;;21.10;35.50;;;;;;4977630;28;20257;-75
2022/03/24 14:47:17;;;;;;;9.03;7.37;;;20.90;34.80;;;;;;4995531;28;20676;-77
2022/03/24 14:49:46;;;;;;;11.37;7.70;;;21.00;36.30;;;;;;4998636;28;20210;-76
2022/03/24 14:52:14;;;;;;;10.13;8.20;;;21.00;36.30;;;;;;4996258;28;20227;-74
2022/03/24 14:54:42;;;;;;;9.90;7.50;;;21.00;36.20;;;;;;4993762;28;20257;-75
2022/03/24 14:57:10;;;;;;;10.77;7.97;;;20.90;36.60;;;;;;4997467;28;20309;-74
2022/03/24 14:59:40;;;;;;;12.20;7.87;;;20.90;36.60;;;;;;4996321;28;20234;-74
2022/03/24 15:02:09;;;;;;;13.23;8.43;;;20.80;35.70;;;;;;4997790;28;20228;-76
2022/03/24 15:04:40;;;;;;;10.23;7.07;;;20.70;35.40;;;;;;4999024;28;20229;-76
2022/03/24 15:07:08;;;;;;;11.40;7.17;;;20.70;35.00;;;;;;4993535;28;20292;-76
2022/03/24 15:09:36;;;;;;;10.23;7.23;;;20.50;35.70;;;;;;4996128;28;20198;-76
2022/03/24 15:12:05;;;;;;;9.73;7.83;;;20.60;35.50;;;;;;4997746;28;20293;-74
2022/03/24 15:17:21;;;;;;;7.67;6.87;;;20.40;35.50;;;;;;4990678;28;20588;-75
2022/03/24 15:19:49;;;;;;;10.37;7.90;;;20.50;36.30;;;;;;4994892;28;20247;-74
2022/03/24 15:22:19;;;;;;;9.57;7.55;;;20.20;35.90;;;;;;4993951;28;20441;-74
2022/03/24 15:24:48;;;;;;;9.70;7.13;;;20.30;35.90;;;;;;4998592;28;20207;-77
2022/03/24 15:27:16;;;;;;;11.50;8.27;;;20.10;36.40;;;;;;4996947;28;20194;-78
2022/03/24 15:29:44;;;;;;;10.63;8.20;;;20.10;36.40;;;;;;4994148;28;20242;-76
2022/03/24 15:32:12;;;;;;;9.60;7.13;;;20.10;36.20;;;;;;5000142;28;20205;-74
2022/03/24 15:34:44;;;;;;;9.80;8.03;;;20.00;36.00;;;;;;4998914;28;20211;-77
2022/03/24 15:37:12;;;;;;;9.00;7.30;;;19.90;36.70;;;;;;4995424;28;20317;-77
2022/03/24 15:39:40;;;;;;;10.80;7.47;;;19.70;36.20;;;;;;4993409;28;20633;-77
2022/03/24 15:42:09;;;;;;;8.27;7.17;;;19.70;36.60;;;;;;5002900;28;20587;-73
2022/03/24 15:44:37;;;;;;;10.93;7.90;;;19.50;35.90;;;;;;4997493;28;20491;-78
2022/03/24 15:47:06;;;;;;;8.87;7.63;;;19.50;36.60;;;;;;4990468;28;20272;-76
2022/03/24 15:49:35;;;;;;;10.33;7.80;;;19.50;37.30;;;;;;4988910;28;20264;-74
2022/03/24 15:52:05;;;;;;;10.97;7.67;;;19.50;36.30;;;;;;4989219;28;20199;-76
2022/03/24 15:54:35;;;;;;;12.43;7.97;;;19.30;35.80;;;;;;5001712;28;20289;-72
2022/03/24 15:57:04;;;;;;;11.33;8.57;;;19.20;36.50;;;;;;4990841;28;20284;-73
2022/03/24 15:59:34;;;;;;;10.15;7.93;;;19.10;37.40;;;;;;4989074;28;20435;-76
2022/03/24 16:02:02;;;;;;;8.77;7.27;;;18.90;37.30;;;;;;4984637;28;20208;-75
2022/03/24 16:04:30;;;;;;;9.53;7.60;;;18.90;38.20;;;;;;4993595;28;20852;-74
2022/03/24 16:06:58;;;;;;;9.30;7.67;;;18.90;39.40;;;;;;4993765;28;20675;-77
2022/03/24 16:09:28;;;;;;;12.60;8.50;;;18.80;38.10;;;;;;4993808;28;20246;-76
2022/03/24 16:11:56;;;;;;;11.80;7.80;;;18.70;37.80;;;;;;4975568;28;20494;-78
2022/03/24 16:14:25;;;;;;;9.93;7.60;;;18.60;37.90;;;;;;4990510;28;20330;-77
2022/03/24 16:16:53;;;;;;;9.10;7.30;;;18.40;38.00;;;;;;4992961;28;20710;-77
2022/03/24 16:19:21;;;;;;;10.33;7.50;;;18.30;37.40;;;;;;4992851;28;20207;-77
2022/03/24 16:21:49;;;;;;;8.50;7.00;;;18.20;38.00;;;;;;4974784;28;20230;-77
2022/03/24 16:24:19;;;;;;;7.83;6.63;;;18.20;37.10;;;;;;4974583;28;20293;-76
2022/03/24 16:26:49;;;;;;;10.53;7.40;;;18.00;38.20;;;;;;4975733;28;20323;-76
2022/03/24 16:29:19;;;;;;;9.70;7.00;;;17.90;38.30;;;;;;5000364;28;20483;-76
2022/03/24 16:31:47;;;;;;;9.13;6.90;;;17.90;38.80;;;;;;5010760;28;20210;-78
2022/03/24 16:34:15;;;;;;;7.50;6.63;;;17.70;38.40;;;;;;5013122;28;20210;-78
2022/03/24 16:36:45;;;;;;;9.43;7.03;;;17.60;38.60;;;;;;4982721;28;20203;-76
2022/03/24 16:39:14;;;;;;;11.93;8.20;;;17.50;39.50;;;;;;4990504;28;20222;-78
2022/03/24 16:41:42;;;;;;;10.50;7.57;;;17.40;38.60;;;;;;4990591;28;20206;-78
2022/03/24 16:44:12;;;;;;;9.93;7.17;;;17.40;39.00;;;;;;4973834;28;20298;-77
2022/03/24 16:46:40;;;;;;;12.83;7.53;;;17.20;39.70;;;;;;4975143;28;20207;-77
2022/03/24 16:49:12;;;;;;;12.40;6.87;;;17.10;40.60;;;;;;4988866;28;20202;-77
2022/03/24 16:51:40;;;;;;;15.73;7.00;;;17.00;41.10;;;;;;4982000;28;20727;-76
2022/03/24 16:54:09;;;;;;;13.00;7.87;;;16.90;41.00;;;;;;4990852;28;20207;-77
2022/03/24 16:56:37;;;;;;;11.00;7.40;;;16.70;41.50;;;;;;4991141;28;20935;-76
2022/03/24 16:59:06;;;;;;;10.43;7.30;;;16.70;41.60;;;;;;4992318;28;20281;-77
2022/03/24 17:01:36;;;;;;;10.47;7.53;;;16.50;42.20;;;;;;4983326;28;20674;-77
2022/03/24 17:04:05;;;;;;;12.73;7.65;;;16.40;41.70;;;;;;4978293;28;20447;-77
2022/03/24 17:06:33;;;;;;;11.57;7.87;;;16.20;42.20;;;;;;4993404;28;20206;-73
2022/03/24 17:09:05;;;;;;;12.00;7.80;;;16.10;42.40;;;;;;4991437;28;20668;-77
2022/03/24 17:11:35;;;;;;;11.03;7.70;;;16.00;42.30;;;;;;4974166;28;20234;-78
2022/03/24 17:14:05;;;;;;;9.80;7.40;;;15.80;42.50;;;;;;4973063;28;20348;-75
2022/03/24 17:16:33;;;;;;;14.97;7.30;;;15.70;42.70;;;;;;4974298;28;20191;-76
2022/03/24 17:19:03;;;;;;;9.13;7.67;;;15.60;42.80;;;;;;4999175;28;20230;-77
2022/03/24 17:21:32;;;;;;;10.73;7.83;;;15.40;42.90;;;;;;4999706;28;20211;-74
2022/03/24 17:24:00;;;;;;;9.93;7.43;;;15.30;43.30;;;;;;4983945;28;20248;-76
2022/03/24 17:26:36;;;;;;;11.53;7.77;;;15.10;43.30;;;;;;4994079;28;20281;-77
2022/03/24 17:29:05;;;;;;;9.50;7.87;;;15.00;44.30;;;;;;4992247;28;20333;-73
2022/03/24 17:31:33;;;;;;;10.80;7.93;;;14.80;43.90;;;;;;4992713;28;20218;-74
2022/03/24 17:34:04;;;;;;;10.80;8.07;;;14.80;44.30;;;;;;4989039;28;20656;-77
2022/03/24 17:36:35;;;;;;;9.60;8.07;;;14.50;44.60;;;;;;4991668;28;20357;-78
2022/03/24 17:39:03;;;;;;;13.50;8.37;;;14.40;44.90;;;;;;4985965;28;20293;-78
2022/03/24 17:41:39;;;;;;;12.60;8.77;;;14.30;45.50;;;;;;4992447;28;20205;-76
2022/03/24 17:44:08;;;;;;;13.53;7.87;;;14.10;45.80;;;;;;4991847;28;20269;-78
2022/03/24 17:46:37;;;;;;;12.37;8.47;;;14.00;46.60;;;;;;4992423;28;20293;-77
2022/03/24 17:49:08;;;;;;;12.83;8.63;;;13.80;46.70;;;;;;4991811;28;20225;-76
2022/03/24 17:51:37;;;;;;;14.50;8.90;;;13.60;46.80;;;;;;4992864;28;20238;-74
2022/03/24 17:54:05;;;;;;;12.37;9.10;;;13.40;47.20;;;;;;4992853;28;20660;-77
2022/03/24 17:56:35;;;;;;;12.63;9.30;;;13.30;47.70;;;;;;4992458;28;20723;-76
2022/03/24 17:59:05;;;;;;;15.33;9.03;;;13.20;47.90;;;;;;4998588;28;20233;-77
2022/03/24 18:01:33;;;;;;;10.43;8.07;;;13.10;49.40;;;;;;4995713;28;20261;-78
2022/03/24 18:04:01;;;;;;;12.90;8.40;;;12.90;49.40;;;;;;4992075;28;20216;-79
2022/03/24 18:06:31;;;;;;;13.77;9.00;;;12.80;49.60;;;;;;4992174;28;20214;-77